Time;durP1;ratioP1;P1;durP2;ratioP2;P2;SDS_P1;SDS_P2;PMS_P1;PMS_P2;Temp;Humidity;BMP_temperature;BMP_pressure;BME280_temperature;BME280_humidity;BME280_pressure;Samples;Min_cycle;Max_cycle;Signal;HPM_P1;HPM_P2
2023/07/13 00:01:43;;;;;;;31.15;3.05;;;23.40;91.80;;;;;;5039208;28;20340;-79
2023/07/13 00:04:09;;;;;;;0.10;0.10;;;23.20;90.70;;;;;;5039096;28;20028;-76
2023/07/13 00:06:35;;;;;;;0.10;0.10;;;26.20;91.20;;;;;;5039005;28;20092;-78
2023/07/13 00:09:01;;;;;;;0.10;0.10;;;23.20;90.50;;;;;;5039294;28;20423;-81
2023/07/13 00:11:27;;;;;;;0.22;0.22;;;23.20;90.80;;;;;;5039301;28;20033;-82
2023/07/13 00:13:53;;;;;;;0.10;0.10;;;23.10;92.10;;;;;;5038996;28;20021;-78
2023/07/13 00:16:20;;;;;;;0.10;0.10;;;23.10;91.00;;;;;;5038910;28;20543;-79
2023/07/13 00:18:46;;;;;;;0.30;0.30;;;22.30;92.40;;;;;;5038601;28;20090;-76
2023/07/13 00:21:12;;;;;;;0.10;0.10;;;23.40;92.40;;;;;;5038546;28;20037;-78
2023/07/13 00:23:40;;;;;;;0.10;0.10;;;23.50;92.80;;;;;;5038609;28;20215;-80
2023/07/13 00:26:08;;;;;;;0.10;0.10;;;23.50;92.60;;;;;;5038659;28;20028;-74
2023/07/13 00:28:34;;;;;;;0.60;0.60;;;23.60;91.90;;;;;;5038551;28;20100;-76
2023/07/13 00:31:01;;;;;;;0.08;0.08;;;23.30;92.70;;;;;;5038326;28;20017;-77
2023/07/13 00:33:29;;;;;;;0.10;0.10;;;23.40;93.10;;;;;;5038327;28;20083;-74
2023/07/13 00:35:55;;;;;;;0.10;0.10;;;23.30;92.30;;;;;;5038423;28;20013;-75
2023/07/13 00:38:22;;;;;;;0.10;0.10;;;23.40;93.40;;;;;;5037937;28;20029;-76
2023/07/13 00:40:48;;;;;;;0.10;0.10;;;23.30;92.10;;;;;;5036807;28;20061;-77
2023/07/13 00:43:19;;;;;;;0.10;0.10;;;23.20;92.80;;;;;;5036648;28;20099;-74
2023/07/13 00:45:45;;;;;;;0.10;0.10;;;23.10;93.30;;;;;;5038073;28;20025;-77
2023/07/13 00:48:25;;;;;;;0.10;0.10;;;23.10;93.70;;;;;;5038172;28;20025;-77
2023/07/13 00:50:55;;;;;;;0.10;0.10;;;23.10;93.40;;;;;;5038024;28;20194;-74
2023/07/13 00:53:21;;;;;;;0.30;0.30;;;23.20;93.50;;;;;;5037895;28;20336;-80
2023/07/13 00:55:53;;;;;;;0.10;0.10;;;23.20;92.70;;;;;;5037899;28;20112;-75
2023/07/13 00:58:19;;;;;;;0.30;0.30;;;23.10;91.90;;;;;;5037681;28;20400;-81
2023/07/13 01:00:48;;;;;;;0.43;0.43;;;23.10;93.40;;;;;;5037546;28;20597;-75
2023/07/13 01:03:14;;;;;;;1.88;1.58;;;23.20;94.00;;;;;;5037774;28;20025;-76
2023/07/13 01:05:40;;;;;;;0.10;0.10;;;23.30;93.60;;;;;;5037689;28;20025;-74
2023/07/13 01:08:06;;;;;;;1.90;1.80;;;23.40;93.90;;;;;;5037683;28;20111;-78
2023/07/13 01:10:38;;;;;;;0.10;0.10;;;23.50;93.40;;;;;;5037970;28;20484;-80
2023/07/13 01:13:11;;;;;;;0.10;0.10;;;23.40;93.40;;;;;;5037720;28;20132;-74
2023/07/13 01:15:41;;;;;;;0.10;0.10;;;23.30;92.60;;;;;;5038041;28;20029;-80
2023/07/13 01:18:10;;;;;;;0.00;0.00;;;23.20;94.30;;;;;;5037720;28;20021;-82
2023/07/13 01:20:36;;;;;;;2.38;2.17;;;23.30;94.10;;;;;;5037660;28;20523;-78
2023/07/13 01:23:07;;;;;;;0.63;0.55;;;23.20;93.60;;;;;;5037514;28;20379;-77
2023/07/13 01:25:35;;;;;;;0.70;0.70;;;23.30;94.20;;;;;;5037631;28;20029;-79
2023/07/13 01:28:01;;;;;;;0.10;0.10;;;23.20;93.60;;;;;;5037526;28;20479;-79
2023/07/13 01:30:27;;;;;;;1.33;1.23;;;23.30;94.60;;;;;;5037400;28;20434;-78
2023/07/13 01:32:53;;;;;;;0.55;0.55;;;23.40;94.10;;;;;;5037550;28;20691;-77
2023/07/13 01:35:19;;;;;;;0.55;0.55;;;23.40;94.40;;;;;;5037255;28;20730;-75
2023/07/13 01:37:44;;;;;;;0.10;0.10;;;23.20;92.40;;;;;;5037065;28;20087;-77
2023/07/13 01:40:12;;;;;;;0.10;0.10;;;23.20;94.50;;;;;;5035732;28;20428;-73
2023/07/13 01:42:37;;;;;;;0.52;0.45;;;23.40;94.50;;;;;;5036873;28;20039;-81
2023/07/13 01:45:04;;;;;;;0.20;0.20;;;23.40;92.80;;;;;;5037047;28;20100;-79
2023/07/13 01:47:30;;;;;;;0.10;0.10;;;22.90;92.90;;;;;;5037197;28;20029;-73
2023/07/13 01:49:57;;;;;;;0.10;0.10;;;22.60;93.40;;;;;;5037042;28;20298;-76
2023/07/13 01:52:23;;;;;;;0.10;0.10;;;22.40;93.40;;;;;;5036857;28;20035;-74
2023/07/13 01:54:49;;;;;;;0.10;0.10;;;22.20;93.90;;;;;;5037114;28;20107;-80
2023/07/13 01:57:15;;;;;;;0.25;0.25;;;22.30;95.10;;;;;;5036590;28;20041;-76
2023/07/13 01:59:41;;;;;;;0.20;0.20;;;22.20;94.00;;;;;;5036785;28;20102;-81
2023/07/13 02:02:07;;;;;;;0.20;0.20;;;22.00;94.40;;;;;;5036418;28;20025;-79
2023/07/13 02:04:33;;;;;;;0.10;0.10;;;22.00;94.30;;;;;;5036704;28;20332;-77
2023/07/13 02:06:59;;;;;;;0.10;0.10;;;22.00;94.50;;;;;;5036788;28;20021;-79
2023/07/13 02:09:25;;;;;;;0.43;0.43;;;22.00;94.60;;;;;;5036865;28;20063;-76
2023/07/13 02:11:51;;;;;;;0.10;0.10;;;22.00;94.50;;;;;;5036630;28;20122;-75
2023/07/13 02:14:16;;;;;;;0.10;0.10;;;22.00;94.30;;;;;;5036661;28;20075;-83
2023/07/13 02:16:42;;;;;;;0.40;0.40;;;22.00;94.50;;;;;;5036845;28;20021;-78
2023/07/13 02:19:08;;;;;;;0.10;0.10;;;22.00;94.70;;;;;;5036649;28;20317;-80
2023/07/13 02:21:35;;;;;;;0.05;0.05;;;22.00;95.00;;;;;;5036704;28;20013;-74
2023/07/13 02:24:01;;;;;;;0.10;0.10;;;22.00;94.90;;;;;;5037057;28;20025;-74
2023/07/13 02:26:27;;;;;;;1.08;0.38;;;22.00;94.70;;;;;;5037361;28;20479;-75
2023/07/13 02:28:53;;;;;;;0.10;0.10;;;21.90;94.70;;;;;;5038660;28;20041;-74
2023/07/13 02:31:19;;;;;;;0.47;0.45;;;21.90;94.90;;;;;;5038160;28;20072;-76
2023/07/13 02:33:44;;;;;;;0.10;0.10;;;21.80;94.90;;;;;;5035354;28;20029;-74
2023/07/13 02:36:11;;;;;;;0.00;0.00;;;21.80;95.10;;;;;;5036650;28;20260;-74
2023/07/13 02:38:37;;;;;;;0.13;0.13;;;21.80;95.20;;;;;;5036717;28;20028;-77
2023/07/13 02:41:05;;;;;;;0.25;0.25;;;21.70;95.50;;;;;;5036363;28;20037;-81
2023/07/13 02:43:31;;;;;;;0.30;0.30;;;21.60;95.90;;;;;;5036394;28;20321;-75
2023/07/13 02:46:00;;;;;;;0.10;0.10;;;21.50;95.80;;;;;;5036453;28;20032;-77
2023/07/13 02:48:26;;;;;;;0.10;0.10;;;21.50;96.00;;;;;;5036341;28;20013;-82
2023/07/13 02:50:51;;;;;;;0.10;0.10;;;21.50;95.90;;;;;;5036503;28;20207;-77
2023/07/13 02:53:17;;;;;;;0.10;0.10;;;21.50;96.00;;;;;;5036277;28;20302;-81
2023/07/13 02:55:47;;;;;;;0.15;0.15;;;21.50;96.30;;;;;;5036428;28;20025;-78
2023/07/13 02:58:16;;;;;;;0.10;0.10;;;21.40;96.50;;;;;;5036074;28;20069;-78
2023/07/13 03:00:43;;;;;;;0.10;0.10;;;21.40;96.70;;;;;;5034667;28;20569;-77
2023/07/13 03:03:09;;;;;;;0.10;0.10;;;21.30;96.80;;;;;;5036200;28;20268;-75
2023/07/13 03:05:37;;;;;;;0.10;0.10;;;21.40;96.60;;;;;;5036288;28;20021;-75
2023/07/13 03:08:03;;;;;;;0.10;0.10;;;21.40;96.30;;;;;;5036233;28;20043;-76
2023/07/13 03:10:29;;;;;;;0.40;0.40;;;21.50;96.60;;;;;;5036085;28;20025;-77
2023/07/13 03:12:55;;;;;;;0.20;0.20;;;21.30;97.20;;;;;;5034938;28;20464;-77
2023/07/13 03:15:21;;;;;;;0.10;0.10;;;21.30;97.50;;;;;;5039832;28;20036;-77
2023/07/13 03:17:46;;;;;;;0.10;0.10;;;21.20;97.70;;;;;;5040168;28;20637;-76
2023/07/13 03:20:12;;;;;;;0.10;0.10;;;21.10;97.80;;;;;;5039804;28;20029;-79
2023/07/13 03:22:38;;;;;;;0.10;0.10;;;21.10;98.10;;;;;;5039988;28;20027;-74
2023/07/13 03:25:04;;;;;;;0.00;0.00;;;21.00;98.50;;;;;;5039800;28;20025;-72
2023/07/13 03:27:30;;;;;;;0.10;0.10;;;21.00;98.90;;;;;;5038305;28;20055;-74
2023/07/13 03:29:56;;;;;;;0.10;0.10;;;20.90;99.20;;;;;;5039887;28;20081;-78
2023/07/13 03:32:22;;;;;;;0.10;0.10;;;20.90;99.30;;;;;;5039627;28;20071;-75
2023/07/13 03:34:48;;;;;;;0.20;0.20;;;20.80;99.50;;;;;;5039474;28;20021;-75
2023/07/13 03:37:16;;;;;;;0.13;0.13;;;20.80;99.50;;;;;;5039838;28;20048;-78
2023/07/13 03:39:42;;;;;;;0.10;0.10;;;20.90;99.60;;;;;;5037797;28;20048;-80
2023/07/13 03:42:07;;;;;;;0.10;0.10;;;20.80;99.80;;;;;;5039422;28;20090;-75
2023/07/13 03:44:33;;;;;;;0.10;0.10;;;20.80;99.90;;;;;;5039354;28;20029;-75
2023/07/13 03:46:59;;;;;;;0.10;0.10;;;20.70;99.90;;;;;;5039310;28;20495;-73
2023/07/13 03:49:25;;;;;;;0.10;0.10;;;20.70;99.90;;;;;;5039421;28;20029;-78
2023/07/13 03:51:50;;;;;;;0.10;0.10;;;20.70;99.90;;;;;;5039168;28;20451;-76
2023/07/13 03:54:16;;;;;;;0.10;0.10;;;20.70;99.90;;;;;;5038972;28;20013;-80
2023/07/13 03:56:42;;;;;;;0.20;0.20;;;20.80;99.90;;;;;;5039273;28;20507;-77
2023/07/13 03:59:07;;;;;;;0.10;0.10;;;20.80;99.90;;;;;;5038468;28;20044;-75
2023/07/13 04:01:33;;;;;;;0.10;0.10;;;20.80;99.90;;;;;;5038786;28;20183;-76
2023/07/13 04:03:59;;;;;;;0.10;0.10;;;20.80;99.90;;;;;;5038935;28;20180;-75
2023/07/13 04:06:30;;;;;;;0.10;0.10;;;20.80;99.90;;;;;;5037591;28;20345;-73
2023/07/13 04:08:59;;;;;;;0.10;0.10;;;20.80;99.90;;;;;;5038915;28;20024;-75
2023/07/13 04:11:28;;;;;;;3.72;3.40;;;20.80;99.90;;;;;;5039012;28;20025;-74
2023/07/13 04:13:54;;;;;;;0.10;0.10;;;21.10;99.90;;;;;;5038622;28;20444;-74
2023/07/13 04:16:20;;;;;;;0.10;0.10;;;21.30;99.90;;;;;;5037346;28;20060;-77
2023/07/13 04:18:47;;;;;;;0.10;0.10;;;21.20;99.90;;;;;;5038773;28;20033;-76
2023/07/13 04:21:14;;;;;;;0.10;0.10;;;21.10;99.90;;;;;;5038525;28;20072;-76
2023/07/13 04:23:40;;;;;;;0.10;0.10;;;;;;;;;;5038672;28;20507;-73
2023/07/13 04:26:06;;;;;;;1.77;1.65;;;20.90;99.90;;;;;;5038256;28;20213;-76
2023/07/13 04:28:32;;;;;;;0.10;0.10;;;20.90;99.90;;;;;;5038577;28;20438;-74
2023/07/13 04:30:58;;;;;;;0.20;0.20;;;21.20;99.90;;;;;;5038467;28;20484;-75
2023/07/13 04:33:24;;;;;;;0.10;0.10;;;21.40;99.90;;;;;;5038568;28;20096;-73
2023/07/13 04:35:54;;;;;;;1.27;1.17;;;21.80;99.90;;;;;;5038487;28;20067;-78
2023/07/13 04:38:20;;;;;;;0.40;0.40;;;21.80;99.90;;;;;;5036936;28;20076;-78
2023/07/13 04:40:47;;;;;;;0.20;0.20;;;21.80;99.90;;;;;;5038343;28;20257;-75
2023/07/13 04:43:13;;;;;;;0.05;0.05;;;22.00;99.90;;;;;;5038360;28;20108;-76
2023/07/13 04:45:38;;;;;;;0.20;0.20;;;22.00;99.90;;;;;;5038176;28;20106;-77
2023/07/13 04:48:05;;;;;;;0.10;0.10;;;22.30;99.90;;;;;;5038152;28;20029;-75
2023/07/13 04:50:30;;;;;;;0.10;0.10;;;22.50;99.90;;;;;;5037931;28;20033;-74
2023/07/13 04:52:56;;;;;;;3.67;3.47;;;22.50;99.90;;;;;;5038155;28;20229;-74
2023/07/13 04:55:22;;;;;;;0.63;0.63;;;22.20;99.90;;;;;;5037998;28;20032;-74
2023/07/13 04:57:48;;;;;;;8.15;2.83;;;24.10;99.90;;;;;;5037618;28;20037;-76
2023/07/13 05:00:15;;;;;;;2.13;2.05;;;22.30;99.90;;;;;;5037772;28;20044;-74
2023/07/13 05:02:45;;;;;;;0.73;0.73;;;22.30;99.90;;;;;;5037971;28;20121;-75
2023/07/13 05:05:10;;;;;;;0.45;0.45;;;22.40;99.90;;;;;;5037681;28;20080;-75
2023/07/13 05:07:36;;;;;;;0.10;0.10;;;22.20;99.90;;;;;;5036001;28;20296;-80
2023/07/13 05:10:03;;;;;;;1.77;1.27;;;22.00;99.90;;;;;;5036203;28;20029;-80
2023/07/13 05:12:29;;;;;;;0.10;0.10;;;22.30;99.90;;;;;;5035938;28;20052;-76
2023/07/13 05:14:55;;;;;;;0.10;0.10;;;22.20;99.90;;;;;;5037617;28;20577;-77
2023/07/13 05:17:21;;;;;;;0.10;0.10;;;22.00;99.90;;;;;;5037709;28;20040;-79
2023/07/13 05:19:47;;;;;;;0.47;0.47;;;22.20;99.90;;;;;;5035893;28;20055;-80
2023/07/13 05:22:13;;;;;;;0.30;0.30;;;22.30;99.90;;;;;;5037624;28;20025;-78
2023/07/13 05:24:38;;;;;;;0.20;0.20;;;22.40;99.90;;;;;;5037480;28;20021;-74
2023/07/13 05:27:05;;;;;;;0.15;0.15;;;22.50;99.90;;;;;;5037049;28;20052;-77
2023/07/13 05:29:30;;;;;;;0.50;0.50;;;21.70;99.90;;;;;;5037251;28;20033;-78
2023/07/13 05:31:56;;;;;;;0.68;0.68;;;22.70;99.90;;;;;;5037134;28;20707;-75
2023/07/13 05:34:22;;;;;;;0.10;0.10;;;22.90;99.90;;;;;;5035459;28;20653;-77
2023/07/13 05:36:49;;;;;;;0.90;0.90;;;23.10;99.90;;;;;;5036337;28;20451;-77
2023/07/13 05:39:15;;;;;;;0.20;0.20;;;23.00;99.90;;;;;;5037004;28;20025;-79
2023/07/13 05:41:41;;;;;;;0.20;0.20;;;23.00;99.90;;;;;;5035929;28;20183;-75
2023/07/13 05:44:07;;;;;;;1.40;1.35;;;23.00;99.90;;;;;;5037107;28;20505;-76
2023/07/13 05:46:33;;;;;;;0.60;0.60;;;23.10;99.90;;;;;;5037094;28;20644;-74
2023/07/13 05:48:59;;;;;;;0.10;0.10;;;23.20;99.90;;;;;;5037086;28;20313;-75
2023/07/13 05:51:24;;;;;;;0.10;0.10;;;23.30;99.90;;;;;;5037729;28;20025;-79
2023/07/13 05:53:50;;;;;;;0.10;0.10;;;23.30;99.90;;;;;;5037710;28;20718;-78
2023/07/13 05:56:16;;;;;;;0.47;0.47;;;23.40;99.90;;;;;;5037675;28;20013;-79
2023/07/13 05:58:42;;;;;;;0.10;0.10;;;23.50;99.90;;;;;;5038321;28;20535;-78
2023/07/13 06:01:11;;;;;;;1.27;1.17;;;23.40;99.90;;;;;;5037493;28;20507;-77
2023/07/13 06:03:40;;;;;;;0.20;0.20;;;23.50;99.90;;;;;;5036605;28;20207;-76
2023/07/13 06:06:07;;;;;;;0.10;0.10;;;23.60;99.90;;;;;;5036491;28;20024;-73
2023/07/13 06:08:33;;;;;;;0.10;0.10;;;23.50;99.90;;;;;;5036547;28;20377;-76
2023/07/13 06:11:14;;;;;;;0.40;0.40;;;23.70;99.90;;;;;;5036469;28;20232;-77
2023/07/13 06:13:40;;;;;;;0.10;0.10;;;23.80;99.90;;;;;;5036468;28;20265;-76
2023/07/13 06:16:06;;;;;;;0.10;0.10;;;23.80;99.90;;;;;;5036322;28;20338;-74
2023/07/13 06:18:33;;;;;;;0.10;0.10;;;24.00;99.90;;;;;;5036339;28;20025;-76
2023/07/13 06:20:59;;;;;;;0.10;0.10;;;24.10;99.90;;;;;;5036179;28;20029;-76
2023/07/13 06:23:25;;;;;;;0.68;0.68;;;24.20;99.90;;;;;;5036629;28;20079;-79
2023/07/13 06:25:51;;;;;;;0.10;0.10;;;24.40;99.90;;;;;;5034766;28;20057;-75
2023/07/13 06:28:16;;;;;;;1.88;0.60;;;24.50;99.90;;;;;;5036241;28;20057;-79
2023/07/13 06:30:43;;;;;;;0.95;0.95;;;;;;;;;;5036126;28;20569;-77
2023/07/13 06:33:08;;;;;;;2.08;1.85;;;24.80;99.80;;;;;;5034847;28;20025;-74
2023/07/13 06:35:34;;;;;;;0.10;0.10;;;25.00;99.90;;;;;;5036512;28;20081;-74
2023/07/13 06:38:00;;;;;;;0.45;0.40;;;25.10;99.90;;;;;;5036147;28;20033;-80
2023/07/13 06:40:28;;;;;;;0.43;0.22;;;25.30;99.90;;;;;;5034807;28;20511;-78
2023/07/13 06:42:54;;;;;;;1.60;1.30;;;25.40;99.90;;;;;;5036191;28;20429;-74
2023/07/13 06:45:20;;;;;;;0.28;0.28;;;25.60;99.90;;;;;;5038115;28;20679;-74
2023/07/13 06:47:45;;;;;;;0.10;0.10;;;25.70;99.90;;;;;;5038733;28;20671;-74
2023/07/13 06:50:11;;;;;;;0.17;0.17;;;25.90;99.90;;;;;;5039927;28;20025;-75
2023/07/13 06:52:37;;;;;;;0.10;0.10;;;26.00;99.90;;;;;;5041003;28;20079;-76
2023/07/13 06:55:03;;;;;;;6.03;2.53;;;26.20;99.90;;;;;;5041274;28;20027;-73
2023/07/13 06:57:29;;;;;;;0.00;0.00;;;26.40;99.90;;;;;;5039661;28;20044;-75
2023/07/13 06:59:55;;;;;;;2.58;1.17;;;26.40;99.90;;;;;;5041685;28;20249;-75
2023/07/13 07:02:21;;;;;;;0.22;0.22;;;26.50;99.90;;;;;;5040324;28;20434;-75
2023/07/13 07:04:47;;;;;;;0.63;0.43;;;26.70;99.60;;;;;;5041532;28;20021;-74
2023/07/13 07:07:13;;;;;;;0.10;0.10;;;26.90;99.50;;;;;;5042178;28;20018;-75
2023/07/13 07:09:39;;;;;;;0.10;0.10;;;27.00;99.30;;;;;;5040020;28;20685;-75
2023/07/13 07:12:05;;;;;;;0.60;0.47;;;27.30;98.80;;;;;;5041511;28;20031;-73
2023/07/13 07:14:32;;;;;;;0.20;0.20;;;27.40;97.50;;;;;;5041443;28;20302;-72
2023/07/13 07:16:58;;;;;;;0.05;0.05;;;27.80;95.50;;;;;;5041035;28;20510;-74
2023/07/13 07:19:24;;;;;;;0.00;0.00;;;28.00;95.80;;;;;;5040059;28;20301;-76
2023/07/13 07:21:50;;;;;;;0.00;0.00;;;28.30;94.70;;;;;;5041416;28;20064;-74
2023/07/13 07:24:16;;;;;;;0.77;0.50;;;28.60;94.90;;;;;;5041540;28;20321;-74
2023/07/13 07:26:42;;;;;;;0.47;0.32;;;28.80;95.60;;;;;;5039824;28;20045;-77
2023/07/13 07:29:08;;;;;;;0.10;0.10;;;28.80;94.90;;;;;;5040296;28;20051;-79
2023/07/13 07:31:34;;;;;;;0.90;0.75;;;29.10;93.10;;;;;;5038954;28;20033;-76
2023/07/13 07:34:00;;;;;;;0.20;0.20;;;29.40;92.10;;;;;;5040987;28;20124;-76
2023/07/13 07:36:26;;;;;;;0.20;0.15;;;28.20;90.90;;;;;;5040809;28;20509;-75
2023/07/13 07:38:52;;;;;;;0.17;0.17;;;29.80;91.40;;;;;;5040532;28;20025;-75
2023/07/13 07:41:17;;;;;;;0.10;0.10;;;30.10;91.40;;;;;;5040570;28;20482;-75
2023/07/13 07:43:43;;;;;;;0.05;0.05;;;30.30;90.10;;;;;;5040638;28;20041;-75
2023/07/13 07:46:09;;;;;;;0.22;0.22;;;30.40;88.80;;;;;;5041410;28;20261;-75
2023/07/13 07:48:35;;;;;;;0.10;0.10;;;30.40;87.20;;;;;;5040777;28;20045;-74
2023/07/13 07:51:04;;;;;;;0.10;0.10;;;30.80;88.00;;;;;;5041059;28;20026;-77
2023/07/13 07:53:30;;;;;;;0.52;0.52;;;30.90;87.60;;;;;;5041300;28;20024;-72
2023/07/13 07:55:56;;;;;;;1.27;0.88;;;31.10;85.30;;;;;;5040782;28;20029;-75
2023/07/13 07:58:22;;;;;;;1.65;1.40;;;31.10;88.40;;;;;;5041105;28;20329;-75
2023/07/13 08:00:48;;;;;;;2.28;2.15;;;31.20;88.60;;;;;;5040000;28;20025;-76
2023/07/13 08:03:14;;;;;;;2.92;0.68;;;31.20;88.10;;;;;;5038617;28;20009;-78
2023/07/13 08:05:39;;;;;;;0.98;0.45;;;31.30;86.30;;;;;;5039537;28;20025;-75
2023/07/13 08:08:05;;;;;;;0.52;0.40;;;31.40;85.60;;;;;;5039842;28;20028;-78
2023/07/13 08:10:31;;;;;;;0.50;0.47;;;31.40;85.80;;;;;;5040091;28;20613;-75
2023/07/13 08:12:57;;;;;;;1.70;0.88;;;31.50;86.60;;;;;;5040635;28;20012;-78
2023/07/13 08:15:23;;;;;;;0.30;0.25;;;31.50;85.90;;;;;;5039965;28;20028;-75
2023/07/13 08:17:49;;;;;;;0.30;0.30;;;31.70;84.10;;;;;;5039454;28;20013;-80
2023/07/13 08:20:16;;;;;;;0.63;0.35;;;31.70;83.40;;;;;;5040668;28;20186;-78
2023/07/13 08:22:42;;;;;;;0.30;0.30;;;31.90;82.90;;;;;;5040404;28;20024;-76
2023/07/13 08:25:08;;;;;;;0.20;0.20;;;32.20;83.70;;;;;;5038776;28;20499;-75
2023/07/13 08:27:34;;;;;;;0.43;0.43;;;32.40;82.00;;;;;;5039767;28;20021;-75
2023/07/13 08:30:00;;;;;;;0.65;0.65;;;32.50;81.20;;;;;;5039679;28;20032;-79
2023/07/13 08:32:26;;;;;;;0.55;0.30;;;32.60;79.40;;;;;;5039963;28;20025;-76
2023/07/13 08:34:52;;;;;;;0.10;0.10;;;32.50;77.10;;;;;;5037819;28;20033;-79
2023/07/13 08:37:19;;;;;;;1.30;1.30;;;32.60;76.10;;;;;;5039530;28;20108;-78
2023/07/13 08:39:45;;;;;;;0.32;0.20;;;32.70;75.30;;;;;;5039664;28;20033;-76
2023/07/13 08:42:37;;;;;;;0.10;0.10;;;32.80;75.00;;;;;;5038186;28;20029;-75
2023/07/13 08:45:18;;;;;;;0.15;0.15;;;33.00;74.60;;;;;;5039223;28;20514;-75
2023/07/13 08:47:54;;;;;;;0.20;0.20;;;34.40;75.10;;;;;;5039466;28;20238;-80
2023/07/13 08:50:26;;;;;;;0.10;0.10;;;33.20;72.50;;;;;;5039266;28;20753;-80
2023/07/13 08:52:52;;;;;;;14.13;0.90;;;33.30;73.20;;;;;;5037248;28;20060;-85
2023/07/13 08:55:21;;;;;;;0.55;0.55;;;33.30;73.90;;;;;;5038489;28;20725;-77
2023/07/13 08:57:53;;;;;;;0.30;0.30;;;33.20;74.10;;;;;;5038564;28;20128;-78
2023/07/13 09:00:19;;;;;;;0.20;0.20;;;33.40;74.40;;;;;;5039058;28;20104;-78
2023/07/13 09:02:56;;;;;;;0.32;0.22;;;33.50;74.60;;;;;;5037589;28;20032;-73
2023/07/13 09:05:39;;;;;;;1.30;0.82;;;33.50;73.30;;;;;;5038097;28;20106;-78
2023/07/13 09:08:35;;;;;;;0.88;0.47;;;31.40;72.80;;;;;;5039434;28;20544;-76
2023/07/13 09:11:34;;;;;;;0.85;0.63;;;33.30;74.20;;;;;;5038881;28;20037;-74
2023/07/13 09:14:12;;;;;;;0.55;0.30;;;33.50;74.70;;;;;;5038836;28;20103;-80
2023/07/13 09:16:39;;;;;;;0.35;0.35;;;33.70;75.90;;;;;;5038460;28;20503;-74
2023/07/13 09:19:11;;;;;;;0.10;0.10;;;33.50;75.00;;;;;;5038459;28;20025;-76
2023/07/13 09:21:42;;;;;;;0.40;0.30;;;33.80;73.80;;;;;;5038037;28;20032;-81
2023/07/13 09:24:16;;;;;;;0.75;0.70;;;33.80;73.40;;;;;;5039284;28;20025;-76
2023/07/13 09:26:42;;;;;;;0.10;0.10;;;33.70;73.30;;;;;;5042529;28;20016;-78
2023/07/13 09:29:19;;;;;;;0.20;0.20;;;33.80;71.70;;;;;;5041515;28;20021;-78
2023/07/13 09:31:51;;;;;;;0.28;0.28;;;33.90;70.80;;;;;;5037777;28;20025;-74
2023/07/13 09:34:17;;;;;;;0.30;0.30;;;34.00;70.40;;;;;;5037725;28;20506;-77
2023/07/13 09:36:44;;;;;;;0.20;0.20;;;33.90;71.50;;;;;;5037624;28;20025;-75
2023/07/13 09:39:49;;;;;;;0.20;0.20;;;34.00;70.60;;;;;;5038162;28;20033;-75
2023/07/13 09:42:17;;;;;;;0.10;0.10;;;34.00;70.20;;;;;;4975734;28;20046;-75
2023/07/13 09:44:58;;;;;;;0.00;0.00;;;34.10;72.80;;;;;;4959747;28;20030;-84
2023/07/13 09:47:29;;;;;;;0.13;0.13;;;34.20;69.80;;;;;;4975842;28;20034;-75
2023/07/13 09:49:58;;;;;;;0.30;0.30;;;34.30;70.30;;;;;;4976107;28;20080;-76
2023/07/13 09:52:27;;;;;;;0.10;0.10;;;34.30;69.70;;;;;;4959966;28;20029;-79
2023/07/13 09:54:58;;;;;;;0.30;0.30;;;34.40;69.60;;;;;;4975760;28;20027;-75
2023/07/13 09:57:26;;;;;;;0.43;0.32;;;34.30;69.30;;;;;;4975811;28;20046;-75
2023/07/13 09:59:56;;;;;;;2.53;2.33;;;34.30;69.00;;;;;;4975608;28;20043;-75
2023/07/13 10:02:33;;;;;;;0.47;0.47;;;34.70;68.80;;;;;;4958992;28;20050;-75
2023/07/13 10:05:13;;;;;;;0.25;0.25;;;31.90;66.60;;;;;;4975999;28;20018;-74
2023/07/13 10:07:46;;;;;;;0.13;0.13;;;34.90;66.60;;;;;;4976539;28;20042;-75
2023/07/13 10:10:18;;;;;;;0.75;0.30;;;35.10;66.70;;;;;;4958817;28;20074;-74
2023/07/13 10:12:44;;;;;;;0.30;0.30;;;35.20;67.60;;;;;;4986842;28;20029;-77
2023/07/13 10:15:16;;;;;;;0.10;0.10;;;35.30;67.30;;;;;;5037892;28;20131;-74
2023/07/13 10:17:44;;;;;;;1.15;0.98;;;35.20;67.30;;;;;;5038248;28;20495;-81
2023/07/13 10:20:12;;;;;;;0.10;0.10;;;35.30;67.10;;;;;;5037819;28;20037;-76
2023/07/13 10:22:56;;;;;;;2.38;1.10;;;34.40;67.60;;;;;;5037128;28;20504;-77
2023/07/13 10:25:25;;;;;;;0.10;0.10;;;35.70;66.90;;;;;;5037451;28;20025;-77
2023/07/13 10:27:54;;;;;;;0.70;0.70;;;35.60;65.30;;;;;;5037689;28;20025;-79
2023/07/13 10:30:31;;;;;;;0.15;0.15;;;35.40;65.20;;;;;;5037005;28;20017;-78
2023/07/13 10:33:03;;;;;;;0.52;0.40;;;35.20;64.30;;;;;;5037764;28;20173;-74
2023/07/13 10:35:31;;;;;;;0.30;0.30;;;35.10;65.70;;;;;;5037592;28;20075;-75
2023/07/13 10:38:20;;;;;;;0.20;0.20;;;35.10;64.90;;;;;;5037808;28;20578;-77
2023/07/13 10:40:56;;;;;;;0.43;0.30;;;35.30;64.40;;;;;;5037849;28;20057;-75
2023/07/13 10:43:39;;;;;;;0.20;0.20;;;35.20;64.70;;;;;;5038161;28;20700;-75
2023/07/13 10:46:09;;;;;;;0.22;0.22;;;34.00;63.80;;;;;;5038434;28;20017;-83
2023/07/13 10:48:36;;;;;;;1.92;1.83;;;35.70;65.70;;;;;;5037451;28;20025;-76
2023/07/13 10:51:06;;;;;;;0.52;0.45;;;35.80;64.90;;;;;;5037154;28;20653;-75
2023/07/13 10:53:35;;;;;;;0.28;0.28;;;35.90;65.50;;;;;;5037304;28;20074;-75
2023/07/13 10:56:17;;;;;;;4.60;2.50;;;36.10;65.90;;;;;;5037159;28;20021;-74
2023/07/13 10:58:43;;;;;;;2.40;0.90;;;36.20;64.70;;;;;;5036721;28;20034;-79
2023/07/13 11:01:13;;;;;;;1.75;1.60;;;36.20;64.80;;;;;;5037171;28;20694;-76
2023/07/13 11:03:59;;;;;;;0.20;0.20;;;36.10;65.70;;;;;;5036177;28;20670;-75
2023/07/13 11:06:33;;;;;;;0.20;0.20;;;36.20;65.10;;;;;;5038391;28;20078;-81
2023/07/13 11:09:22;;;;;;;0.30;0.28;;;36.30;65.60;;;;;;5036853;28;20291;-75
2023/07/13 11:11:48;;;;;;;1.65;1.30;;;36.60;65.20;;;;;;5037224;28;20099;-75
2023/07/13 11:14:26;;;;;;;2.20;1.73;;;36.60;65.00;;;;;;5037734;28;20536;-72
2023/07/13 11:16:52;;;;;;;0.40;0.40;;;36.70;63.80;;;;;;5036157;28;20029;-80
2023/07/13 11:19:17;;;;;;;0.17;0.17;;;36.70;65.10;;;;;;5036842;28;20354;-75
2023/07/13 11:22:05;;;;;;;0.40;0.40;;;36.80;63.90;;;;;;5037311;28;20021;-74
2023/07/13 11:24:49;;;;;;;4.32;3.92;;;37.30;64.70;;;;;;5035086;28;20048;-83
2023/07/13 11:27:35;;;;;;;2.10;1.15;;;37.80;63.30;;;;;;5037490;28;20213;-77
2023/07/13 11:30:29;;;;;;;0.63;0.63;;;37.70;62.10;;;;;;5038065;28;20229;-75
2023/07/13 11:33:27;;;;;;;1.13;0.55;;;37.60;61.80;;;;;;5038368;28;20017;-75
2023/07/13 11:36:05;;;;;;;0.20;0.13;;;37.50;62.40;;;;;;5039746;28;20009;-83
2023/07/13 11:38:39;;;;;;;3.20;1.02;;;37.90;63.00;;;;;;5039038;28;20426;-73
2023/07/13 11:41:20;;;;;;;0.55;0.52;;;37.80;62.20;;;;;;5040514;28;20659;-76
2023/07/13 11:43:50;;;;;;;0.88;0.50;;;37.70;62.20;;;;;;5041340;28;20028;-76
2023/07/13 11:46:27;;;;;;;0.85;0.70;;;38.20;61.60;;;;;;5041250;28;20017;-86
2023/07/13 11:48:54;;;;;;;1.88;1.27;;;38.30;61.30;;;;;;5041033;28;20068;-76
2023/07/13 11:51:33;;;;;;;0.80;0.52;;;38.30;62.00;;;;;;5039942;28;20054;-80
2023/07/13 11:54:32;;;;;;;0.10;0.10;;;38.60;60.70;;;;;;5040885;28;20555;-77
2023/07/13 11:57:06;;;;;;;1.90;0.88;;;38.50;60.80;;;;;;5040330;28;20006;-75
2023/07/13 11:59:33;;;;;;;0.75;0.55;;;38.60;60.80;;;;;;5039016;28;20035;-78
2023/07/13 12:01:59;;;;;;;0.73;0.73;;;38.70;60.20;;;;;;5040006;28;20540;-75
2023/07/13 12:04:34;;;;;;;0.65;0.47;;;38.90;60.60;;;;;;5040214;28;20623;-75
2023/07/13 12:07:14;;;;;;;2.45;0.43;;;39.00;61.10;;;;;;5038523;28;20025;-74
2023/07/13 12:09:41;;;;;;;0.38;0.22;;;39.50;60.90;;;;;;5039285;28;20025;-75
2023/07/13 12:12:29;;;;;;;0.90;0.82;;;39.20;60.90;;;;;;5040342;28;20021;-79
2023/07/13 12:14:55;;;;;;;0.30;0.30;;;39.30;59.80;;;;;;5039895;28;20686;-75
2023/07/13 12:17:24;;;;;;;1.75;1.17;;;39.00;61.10;;;;;;5037869;28;20021;-75
2023/07/13 12:19:51;;;;;;;0.63;0.32;;;39.60;61.30;;;;;;5039585;28;20021;-75
2023/07/13 12:22:19;;;;;;;0.20;0.17;;;39.70;60.50;;;;;;5039740;28;20051;-79
2023/07/13 12:24:46;;;;;;;1.95;1.83;;;39.30;59.70;;;;;;5039743;28;20546;-74
2023/07/13 12:27:24;;;;;;;1.52;0.88;;;39.40;61.20;;;;;;5039853;28;20028;-75
2023/07/13 12:30:05;;;;;;;1.13;0.98;;;39.70;60.90;;;;;;5038570;28;20055;-74
2023/07/13 12:32:31;;;;;;;1.88;1.17;;;39.70;59.50;;;;;;5038575;28;20032;-76
2023/07/13 12:35:18;;;;;;;0.95;0.73;;;39.80;61.00;;;;;;5039549;28;20091;-75
2023/07/13 12:37:46;;;;;;;3.80;1.55;;;39.50;60.80;;;;;;5038282;28;20056;-79
2023/07/13 12:40:33;;;;;;;0.40;0.30;;;39.70;59.70;;;;;;5039163;28;20566;-76
2023/07/13 12:43:02;;;;;;;0.68;0.50;;;40.00;60.40;;;;;;5039669;28;20095;-79
2023/07/13 12:45:28;;;;;;;0.65;0.52;;;40.30;60.30;;;;;;5041957;28;20190;-78
2023/07/13 12:48:04;;;;;;;0.52;0.47;;;40.50;59.00;;;;;;5041334;28;20025;-77
2023/07/13 12:50:46;;;;;;;0.22;0.22;;;41.20;58.90;;;;;;5042704;28;20502;-74
2023/07/13 12:53:19;;;;;;;1.25;0.60;;;40.70;58.10;;;;;;5039767;28;20017;-78
2023/07/13 12:56:00;;;;;;;0.80;0.50;;;41.00;58.30;;;;;;5038023;28;20074;-75
2023/07/13 12:58:38;;;;;;;0.28;0.22;;;41.20;58.00;;;;;;5039230;28;20132;-79